Messwerte Window Rock

Temperatur

Temperatur
°C
1624028400 8.00 8.00 26
1624032000 9.00 9.00 29
1624035600 10.00 10.00 32
1624039200 11.00 11.00 33
1624042800 12.00 12.00 34
1624046400 13.00 13.00 35
1624050000 14.00 14.00 36
1624053600 15.00 15.00 34
1624057200 16.00 16.00 34
1624060800 17.00 17.00 34
1624064400 18.00 18.00 33
1624068000 19.00 19.00 31
1624071600 20.00 20.00 28
1624075200 21.00 21.00 28
1624078800 22.00 22.00
1624082400 23.00 23.00 24
1624086000 0.00 0.00 24
1624089600 1.00 1.00 23
1624093200 2.00 2.00 21
1624096800 3.00 3.00 17
1624100400 4.00 4.00 17
1624104000 5.00 5.00 13
1624107600 6.00 6.00 15
1624111200 7.00 7.00 19

Aktuellste Messwerte

Wettercharakter
Wetter: sonnig
Temperatur
25 °C
Feuchtigkeit
30 %
Wind
0 km/h, -
Luftdruck
1023 hPa
Messzeit: 19. Juni 2021, 8.00Datenquelle: METAR

Weitere Messstationen in der Nähe

Messstation Temperatur Entfernung
Gallup 25 °C 30 km
Grants 25 °C 119 km
St. Johns 28 °C 130 km
Farmington 26 °C 143 km
Winslow 29 °C 166 km
Show Low 29 °C 176 km
Cortez 24 °C 188 km

Wind

Windrichtung Böen Mittelwind
° km/h km/h
1624028400 8.00 7.00 - 8.00 0
1624032000 9.00 8.00 - 9.00 5
1624035600 10.00 9.00 - 10.00 250° 15
1624039200 11.00 10.00 - 11.00
1624042800 12.00 11.00 - 12.00 10
1624046400 13.00 12.00 - 13.00 0
1624050000 14.00 13.00 - 14.00 300° 15
1624053600 15.00 14.00 - 15.00 20° 35 25
1624057200 16.00 15.00 - 16.00 230° 15
1624060800 17.00 16.00 - 17.00 280° 5
1624064400 18.00 17.00 - 18.00 0
1624068000 19.00 18.00 - 19.00 0
1624071600 20.00 19.00 - 20.00 40° 30
1624075200 21.00 20.00 - 21.00 140° 30 15
1624078800 22.00 21.00 - 22.00
1624082400 23.00 22.00 - 23.00 0
1624086000 0.00 23.00 - 0.00 70° 5
1624089600 1.00 0.00 - 1.00 50° 5
1624093200 2.00 1.00 - 2.00 0
1624096800 3.00 2.00 - 3.00 0
1624100400 4.00 3.00 - 4.00 0
1624104000 5.00 4.00 - 5.00 0
1624107600 6.00 5.00 - 6.00 0
1624111200 7.00 6.00 - 7.00 0

Ihre Wetterstation

Fehlt Ihre Wetterstation auf unserem Portal?

Schreiben Sie an network@meteonews.ch

Klima

Wann ist es am wärmsten? Wann regnet es am wenigsten? Unsere Klimadaten geben Auskunft.